Time;durP1;ratioP1;P1;durP2;ratioP2;P2;SDS_P1;SDS_P2;PMS_P1;PMS_P2;Temp;Humidity;BMP_temperature;BMP_pressure;BME280_temperature;BME280_humidity;BME280_pressure;Samples;Min_cycle;Max_cycle;Signal;HPM_P1;HPM_P2
2023/04/23 00:01:37;;;;;;;4.80;3.37;;;13.60;99.90;;;;;;5098273;28;20207;-78
2023/04/23 00:04:07;;;;;;;3.47;3.10;;;13.50;99.90;;;;;;5098548;28;20217;-78
2023/04/23 00:06:35;;;;;;;3.50;3.20;;;13.50;99.90;;;;;;5120174;27;20253;-78
2023/04/23 00:09:03;;;;;;;4.13;3.10;;;13.40;99.90;;;;;;5098062;28;20225;-78
2023/04/23 00:11:30;;;;;;;4.27;3.20;;;13.40;99.90;;;;;;5099226;28;20699;-78
2023/04/23 00:13:57;;;;;;;4.13;3.50;;;13.40;99.90;;;;;;5100132;28;20221;-78
2023/04/23 00:16:25;;;;;;;3.80;3.40;;;13.30;99.90;;;;;;5100154;28;20190;-78
2023/04/23 00:18:52;;;;;;;4.33;3.40;;;13.30;99.90;;;;;;5100009;28;20194;-78
2023/04/23 00:21:20;;;;;;;3.37;3.07;;;13.30;99.90;;;;;;5099955;28;20198;-78
2023/04/23 00:23:47;;;;;;;4.13;3.20;;;13.30;99.90;;;;;;5119670;27;20221;-78
2023/04/23 00:26:14;;;;;;;3.83;3.33;;;13.30;99.90;;;;;;5099681;28;20218;-78
2023/04/23 00:28:40;;;;;;;3.30;3.00;;;13.30;99.90;;;;;;5098969;28;20190;-78
2023/04/23 00:31:07;;;;;;;4.13;3.00;;;13.30;99.90;;;;;;5098457;28;20897;-78
2023/04/23 00:33:34;;;;;;;3.60;3.03;;;13.30;99.90;;;;;;5097987;28;20221;-78
2023/04/23 00:36:01;;;;;;;3.60;3.30;;;13.30;99.90;;;;;;5099910;28;20554;-77
2023/04/23 00:38:29;;;;;;;4.57;3.60;;;13.30;99.90;;;;;;5098340;28;20202;-78
2023/04/23 00:40:56;;;;;;;3.53;3.13;;;13.20;99.90;;;;;;5120229;27;20206;-78
2023/04/23 00:43:23;;;;;;;3.83;3.23;;;13.20;99.90;;;;;;5097301;28;20221;-78
2023/04/23 00:45:50;;;;;;;3.10;2.80;;;13.20;99.90;;;;;;5095603;28;20262;-78
2023/04/23 00:48:17;;;;;;;5.17;3.30;;;13.30;99.90;;;;;;5093732;28;20193;-78
2023/04/23 00:50:44;;;;;;;4.53;3.37;;;13.30;99.90;;;;;;5089937;28;20229;-78
2023/04/23 00:53:11;;;;;;;4.83;3.30;;;13.30;99.90;;;;;;5122683;27;20241;-78
2023/04/23 00:55:40;;;;;;;4.43;3.40;;;13.40;99.90;;;;;;5121605;27;20205;-78
2023/04/23 00:58:07;;;;;;;4.43;3.20;;;13.40;99.90;;;;;;5097330;28;20224;-78
2023/04/23 01:00:40;;;;;;;4.67;3.20;;;13.40;99.90;;;;;;5119318;27;20207;-78
2023/04/23 01:03:06;;;;;;;3.20;2.90;;;13.40;99.90;;;;;;5096653;28;20213;-78
2023/04/23 01:05:33;;;;;;;5.57;3.20;;;13.40;99.90;;;;;;5099567;28;20205;-78
2023/04/23 01:08:00;;;;;;;5.43;3.17;;;13.40;99.90;;;;;;5131832;27;20193;-78
2023/04/23 01:10:27;;;;;;;3.57;3.23;;;13.30;99.90;;;;;;5095916;28;20236;-78
2023/04/23 01:12:55;;;;;;;4.67;3.53;;;13.30;99.90;;;;;;5117320;27;20218;-78
2023/04/23 01:15:22;;;;;;;5.47;3.20;;;13.30;99.90;;;;;;5097572;28;20206;-78
2023/04/23 01:17:49;;;;;;;3.73;3.40;;;13.30;99.90;;;;;;5096851;28;20197;-78
2023/04/23 01:20:16;;;;;;;3.73;3.00;;;13.20;99.90;;;;;;5097904;28;20194;-78
2023/04/23 01:22:44;;;;;;;3.83;3.20;;;13.10;99.90;;;;;;5096374;28;20304;-78
2023/04/23 01:25:11;;;;;;;5.10;3.30;;;13.10;99.90;;;;;;5096921;28;20254;-78
2023/04/23 01:27:39;;;;;;;3.57;3.27;;;13.10;99.90;;;;;;5115364;27;20213;-78
2023/04/23 01:30:07;;;;;;;5.13;3.70;;;13.00;99.90;;;;;;5097297;28;20221;-78
2023/04/23 01:32:35;;;;;;;6.77;4.10;;;13.00;99.90;;;;;;5092644;28;20244;-78
2023/04/23 01:35:03;;;;;;;5.00;4.50;;;12.90;99.90;;;;;;5097790;28;20204;-78
2023/04/23 01:37:31;;;;;;;5.30;4.80;;;12.90;99.90;;;;;;5097110;28;20201;-78
2023/04/23 01:40:00;;;;;;;4.70;4.40;;;12.90;99.90;;;;;;5090390;28;20205;-78
2023/04/23 01:42:27;;;;;;;5.33;4.83;;;12.80;99.90;;;;;;5098497;28;20284;-78
2023/04/23 01:44:54;;;;;;;5.67;5.17;;;12.80;99.90;;;;;;5097410;28;20197;-78
2023/04/23 01:47:21;;;;;;;5.43;4.53;;;12.80;99.90;;;;;;5099011;28;20197;-78
2023/04/23 01:49:48;;;;;;;4.83;4.30;;;12.70;99.90;;;;;;5131161;27;20428;-78
2023/04/23 01:52:15;;;;;;;4.00;3.70;;;12.70;99.90;;;;;;5096967;28;20206;-78
2023/04/23 01:54:58;;;;;;;4.17;3.77;;;12.70;99.90;;;;;;5123589;22;20209;-79
2023/04/23 01:57:31;;;;;;;5.57;5.07;;;12.60;99.90;;;;;;5080867;28;20648;-79
2023/04/23 02:00:22;;;;;;;6.00;5.50;;;12.60;99.90;;;;;;5081667;28;20285;-79
2023/04/23 02:03:17;;;;;;;7.40;5.47;;;12.50;99.90;;;;;;5080867;28;20201;-79
2023/04/23 02:06:16;;;;;;;6.60;4.80;;;12.50;99.90;;;;;;5074703;28;20226;-79
2023/04/23 02:09:03;;;;;;;5.13;4.53;;;12.50;99.90;;;;;;5074770;28;20248;-78
2023/04/23 02:11:33;;;;;;;4.80;4.33;;;12.50;99.90;;;;;;5073046;28;20207;-79
2023/04/23 02:14:02;;;;;;;5.20;4.70;;;12.40;99.90;;;;;;5073173;28;20209;-79
2023/04/23 02:16:29;;;;;;;6.17;4.57;;;12.40;99.90;;;;;;5078075;28;20213;-79
2023/04/23 02:18:56;;;;;;;6.13;4.90;;;12.40;99.90;;;;;;5081011;28;20198;-79
2023/04/23 02:21:25;;;;;;;5.07;4.60;;;12.30;99.90;;;;;;5076806;28;20255;-79
2023/04/23 02:23:52;;;;;;;4.90;4.10;;;12.30;99.90;;;;;;5085431;28;20199;-79
2023/04/23 02:26:19;;;;;;;4.73;4.33;;;12.30;99.90;;;;;;5085243;28;20217;-79
2023/04/23 02:28:46;;;;;;;6.30;4.63;;;12.20;99.90;;;;;;5082349;28;20216;-79
2023/04/23 02:31:14;;;;;;;5.43;4.83;;;12.20;99.90;;;;;;5076683;28;20240;-79
2023/04/23 02:33:42;;;;;;;6.47;5.70;;;12.20;99.90;;;;;;5082119;28;20198;-77
2023/04/23 02:36:10;;;;;;;7.13;4.90;;;12.20;99.90;;;;;;5071657;28;20223;-78
2023/04/23 02:38:40;;;;;;;5.43;4.93;;;12.20;99.90;;;;;;5072840;28;20206;-79
2023/04/23 02:41:07;;;;;;;7.53;5.63;;;12.20;99.90;;;;;;5078178;28;20198;-79
2023/04/23 02:43:34;;;;;;;5.87;5.30;;;12.20;99.90;;;;;;5079779;28;20197;-79
2023/04/23 02:46:06;;;;;;;6.27;5.67;;;12.20;99.90;;;;;;5075615;28;20222;-78
2023/04/23 02:48:36;;;;;;;6.83;6.07;;;12.10;99.90;;;;;;5080326;28;20198;-79
2023/04/23 02:51:04;;;;;;;6.30;5.70;;;12.10;99.90;;;;;;5070866;28;20193;-79
2023/04/23 02:53:30;;;;;;;6.37;5.77;;;12.10;99.90;;;;;;5074038;28;20256;-79
2023/04/23 02:55:57;;;;;;;6.37;5.47;;;12.10;99.90;;;;;;5079771;28;20246;-79
2023/04/23 02:58:25;;;;;;;6.57;5.97;;;12.10;99.90;;;;;;5081042;28;20591;-79
2023/04/23 03:00:55;;;;;;;7.23;6.27;;;12.00;99.90;;;;;;5076012;28;20268;-80
2023/04/23 03:03:25;;;;;;;5.93;5.40;;;12.00;99.90;;;;;;5076207;28;20669;-79
2023/04/23 03:05:54;;;;;;;7.30;5.77;;;12.00;99.90;;;;;;5075176;28;20205;-79
2023/04/23 03:08:21;;;;;;;6.60;5.90;;;12.00;99.90;;;;;;5080072;28;20635;-79
2023/04/23 03:10:49;;;;;;;6.37;5.50;;;12.00;99.90;;;;;;5063508;28;20222;-79
2023/04/23 03:13:16;;;;;;;6.07;5.57;;;11.90;99.90;;;;;;5074030;28;20201;-79
2023/04/23 03:15:43;;;;;;;6.40;5.87;;;11.90;99.90;;;;;;5064982;28;20700;-80
2023/04/23 03:18:10;;;;;;;5.80;5.30;;;11.90;99.90;;;;;;5078663;28;20197;-82
2023/04/23 03:20:38;;;;;;;6.20;5.60;;;11.90;99.90;;;;;;5078361;28;20284;-80
2023/04/23 03:23:06;;;;;;;6.40;5.83;;;11.90;99.90;;;;;;5073868;28;20228;-80
2023/04/23 03:25:34;;;;;;;6.07;5.57;;;11.90;99.90;;;;;;5075046;28;20220;-79
2023/04/23 03:28:01;;;;;;;6.90;5.60;;;11.80;99.90;;;;;;5077386;28;20219;-79
2023/04/23 03:30:29;;;;;;;6.20;5.70;;;11.80;99.90;;;;;;5072436;28;20568;-79
2023/04/23 03:32:57;;;;;;;6.67;6.00;;;11.80;99.90;;;;;;5070016;28;20216;-80
2023/04/23 03:35:25;;;;;;;7.63;5.83;;;11.80;99.90;;;;;;5074650;28;20225;-79
2023/04/23 03:37:54;;;;;;;6.33;5.83;;;11.80;99.90;;;;;;5073755;28;20220;-79
2023/04/23 03:40:25;;;;;;;4.37;3.90;;;11.80;99.90;;;;;;5070847;28;20222;-79
2023/04/23 03:42:56;;;;;;;4.87;4.40;;;11.80;99.90;;;;;;5067466;28;20232;-79
2023/04/23 03:45:31;;;;;;;6.60;4.90;;;11.70;99.90;;;;;;5076095;28;20226;-79
2023/04/23 03:47:58;;;;;;;5.40;4.70;;;11.80;99.90;;;;;;5077313;28;20193;-80
2023/04/23 03:50:25;;;;;;;6.07;4.90;;;11.80;99.90;;;;;;5076528;28;20197;-80
2023/04/23 03:53:05;;;;;;;4.53;4.13;;;11.70;99.90;;;;;;5065131;28;20255;-79
2023/04/23 03:55:53;;;;;;;5.40;4.30;;;11.70;99.90;;;;;;5068503;28;20233;-79
2023/04/23 03:58:20;;;;;;;5.63;4.70;;;11.70;99.90;;;;;;5073653;28;20509;-79
2023/04/23 04:00:47;;;;;;;6.77;4.87;;;11.70;99.90;;;;;;5074716;28;20225;-79
2023/04/23 04:03:14;;;;;;;5.30;4.40;;;11.70;99.90;;;;;;5073479;28;20195;-80
2023/04/23 04:05:41;;;;;;;4.57;4.07;;;11.70;99.90;;;;;;5075037;28;20230;-80
2023/04/23 04:08:08;;;;;;;4.83;3.97;;;11.70;99.90;;;;;;5074448;28;20577;-79
2023/04/23 04:10:35;;;;;;;3.93;3.53;;;11.70;99.90;;;;;;5076254;28;20205;-80
2023/04/23 04:13:03;;;;;;;4.07;3.43;;;11.70;99.90;;;;;;5074991;28;20717;-80
2023/04/23 04:15:31;;;;;;;3.70;3.40;;;11.70;99.90;;;;;;5075249;28;20220;-79
2023/04/23 04:17:58;;;;;;;3.53;3.23;;;11.70;99.90;;;;;;5064421;28;20206;-79
2023/04/23 04:20:27;;;;;;;3.70;3.40;;;11.70;99.90;;;;;;5072596;28;20358;-80
2023/04/23 04:22:55;;;;;;;4.77;3.30;;;11.80;99.90;;;;;;5065492;28;20694;-80
2023/04/23 04:25:22;;;;;;;3.93;3.53;;;11.70;99.90;;;;;;5077658;28;20765;-79
2023/04/23 04:27:49;;;;;;;6.43;3.60;;;11.70;99.90;;;;;;5078643;28;20253;-80
2023/04/23 04:30:18;;;;;;;5.20;3.80;;;11.80;99.90;;;;;;5072265;28;20208;-80
2023/04/23 04:32:45;;;;;;;3.80;3.50;;;11.80;99.90;;;;;;5075724;28;20199;-79
2023/04/23 04:35:13;;;;;;;4.30;3.90;;;11.70;99.90;;;;;;5066198;28;20654;-79
2023/04/23 04:37:40;;;;;;;4.20;3.80;;;11.80;99.90;;;;;;5071420;28;20674;-79
2023/04/23 04:40:10;;;;;;;4.30;3.90;;;11.80;99.90;;;;;;5066200;28;20674;-80
2023/04/23 04:42:37;;;;;;;4.37;3.97;;;11.80;99.90;;;;;;5071468;28;20209;-78
2023/04/23 04:45:06;;;;;;;3.87;3.47;;;11.80;99.90;;;;;;5066821;28;20260;-78
2023/04/23 04:47:34;;;;;;;6.07;4.67;;;11.80;99.90;;;;;;5070961;28;20216;-78
2023/04/23 04:50:01;;;;;;;4.67;4.27;;;11.70;99.90;;;;;;5067614;28;20233;-76
2023/04/23 04:52:27;;;;;;;4.60;4.20;;;11.70;99.90;;;;;;5068212;28;20193;-79
2023/04/23 04:54:54;;;;;;;4.50;4.03;;;11.70;99.90;;;;;;5072097;28;20290;-78
2023/04/23 04:57:21;;;;;;;6.47;4.30;;;11.60;99.90;;;;;;5063448;28;20199;-77
2023/04/23 04:59:48;;;;;;;4.30;3.90;;;11.60;99.90;;;;;;5069052;28;20214;-76
2023/04/23 05:02:15;;;;;;;4.00;3.67;;;11.60;99.90;;;;;;5065329;28;20766;-78
2023/04/23 05:04:43;;;;;;;3.80;3.50;;;11.60;99.90;;;;;;5070332;28;20197;-76
2023/04/23 05:07:10;;;;;;;4.10;3.50;;;11.60;99.90;;;;;;5064121;28;20568;-77
2023/04/23 05:09:37;;;;;;;4.33;3.93;;;11.70;99.90;;;;;;5068490;28;20255;-77
2023/04/23 05:12:06;;;;;;;3.73;3.43;;;11.70;99.90;;;;;;5071548;28;20198;-77
2023/04/23 05:14:33;;;;;;;4.03;3.67;;;11.70;99.90;;;;;;5071173;28;20217;-77
2023/04/23 05:17:00;;;;;;;3.83;3.53;;;11.80;99.90;;;;;;5070656;28;20256;-77
2023/04/23 05:19:26;;;;;;;3.40;3.10;;;11.80;99.90;;;;;;5058858;28;20732;-77
2023/04/23 05:21:54;;;;;;;3.90;3.50;;;11.90;99.90;;;;;;5061429;28;20226;-78
2023/04/23 05:24:21;;;;;;;3.57;3.27;;;11.90;99.90;;;;;;5066782;28;20190;-77
2023/04/23 05:26:48;;;;;;;3.43;3.00;;;12.00;99.90;;;;;;5063810;28;20223;-78
2023/04/23 05:29:18;;;;;;;3.10;2.90;;;11.90;99.90;;;;;;5071121;28;20743;-78
2023/04/23 05:31:45;;;;;;;2.93;2.73;;;11.90;99.90;;;;;;5068907;28;20196;-78
2023/04/23 05:34:12;;;;;;;2.90;2.70;;;11.90;99.90;;;;;;5072979;28;20689;-78
2023/04/23 05:36:40;;;;;;;2.90;2.70;;;11.90;99.90;;;;;;5068822;28;20243;-78
2023/04/23 05:39:08;;;;;;;4.17;2.80;;;11.90;99.90;;;;;;5072505;28;20198;-80
2023/04/23 05:41:34;;;;;;;3.00;2.80;;;12.00;99.90;;;;;;5064449;28;20214;-81
2023/04/23 05:44:01;;;;;;;3.00;2.80;;;12.10;99.90;;;;;;5069932;28;20195;-79
2023/04/23 05:46:28;;;;;;;2.97;2.77;;;12.10;99.90;;;;;;5068477;28;20230;-78
2023/04/23 05:48:55;;;;;;;2.90;2.70;;;12.10;99.90;;;;;;5063915;28;20202;-77
2023/04/23 05:51:22;;;;;;;3.20;2.90;;;12.20;99.90;;;;;;5070535;28;20206;-78
2023/04/23 05:53:48;;;;;;;2.97;2.77;;;12.30;99.90;;;;;;5069480;28;20206;-78
2023/04/23 05:56:17;;;;;;;3.20;2.90;;;12.40;99.90;;;;;;5071707;28;20714;-78
2023/04/23 05:58:43;;;;;;;3.00;2.80;;;12.50;99.90;;;;;;5068657;28;20210;-78
2023/04/23 06:01:10;;;;;;;2.70;2.50;;;12.50;99.90;;;;;;5071291;28;20206;-78
2023/04/23 06:03:37;;;;;;;2.87;2.67;;;12.60;99.90;;;;;;5065078;28;20199;-79
2023/04/23 06:06:04;;;;;;;2.90;2.70;;;12.60;99.90;;;;;;5067547;28;20282;-79
2023/04/23 06:08:31;;;;;;;3.10;2.90;;;12.70;99.90;;;;;;5062547;28;20628;-78
2023/04/23 06:10:58;;;;;;;3.20;2.90;;;12.80;99.90;;;;;;5059963;28;20186;-79
2023/04/23 06:13:27;;;;;;;2.80;2.60;;;12.90;99.90;;;;;;5068791;28;20204;-78
2023/04/23 06:15:54;;;;;;;3.20;2.90;;;13.00;99.90;;;;;;5071305;28;20232;-78
2023/04/23 06:18:21;;;;;;;2.90;2.70;;;13.10;99.90;;;;;;5068597;28;20271;-78
2023/04/23 06:20:50;;;;;;;2.90;2.67;;;13.20;99.90;;;;;;5072831;28;20211;-78
2023/04/23 06:23:17;;;;;;;2.73;2.53;;;13.60;99.90;;;;;;5068337;28;20590;-79
2023/04/23 06:25:44;;;;;;;2.63;2.50;;;13.90;99.90;;;;;;5067238;28;20224;-78
2023/04/23 06:28:10;;;;;;;2.80;2.60;;;14.00;99.90;;;;;;5075314;28;20187;-79
2023/04/23 06:30:52;;;;;;;2.50;2.40;;;14.20;99.90;;;;;;5073813;28;20208;-78
2023/04/23 06:33:20;;;;;;;2.60;2.47;;;14.60;99.90;;;;;;5074314;28;20200;-78
2023/04/23 06:35:46;;;;;;;2.80;2.60;;;14.90;99.90;;;;;;5071921;28;20831;-78
2023/04/23 06:38:13;;;;;;;2.30;2.20;;;15.30;99.90;;;;;;5073016;28;20250;-78
2023/04/23 06:40:41;;;;;;;2.20;2.10;;;15.60;99.90;;;;;;5072868;28;20205;-78
2023/04/23 06:43:08;;;;;;;2.67;2.20;;;15.80;99.90;;;;;;5074308;28;20202;-78
2023/04/23 06:46:08;;;;;;;2.50;2.30;;;15.80;99.90;;;;;;5069634;28;20228;-78
2023/04/23 06:48:36;;;;;;;2.10;2.00;;;15.70;99.90;;;;;;5075991;28;20230;-78
2023/04/23 06:51:04;;;;;;;2.40;2.20;;;15.90;99.90;;;;;;5069367;28;20194;-78
2023/04/23 06:53:31;;;;;;;2.47;2.20;;;15.90;99.90;;;;;;5073011;28;20226;-78
2023/04/23 06:55:58;;;;;;;3.23;2.30;;;15.90;99.90;;;;;;5071525;28;20234;-78
2023/04/23 06:58:30;;;;;;;2.30;2.20;;;16.10;99.90;;;;;;5071648;28;20227;-78
2023/04/23 07:00:58;;;;;;;2.13;1.97;;;16.30;99.90;;;;;;5067529;28;20244;-78
2023/04/23 07:03:27;;;;;;;2.30;2.20;;;16.30;99.90;;;;;;5065974;28;20195;-78
2023/04/23 07:05:54;;;;;;;2.50;2.30;;;16.30;99.90;;;;;;5070014;28;20234;-79
2023/04/23 07:08:21;;;;;;;2.10;2.00;;;16.10;99.90;;;;;;5074996;28;20806;-78
2023/04/23 07:10:48;;;;;;;3.93;2.30;;;15.80;99.90;;;;;;5073650;28;20210;-78
2023/04/23 07:13:16;;;;;;;2.23;2.10;;;15.70;99.90;;;;;;5078562;28;20202;-78
2023/04/23 07:15:43;;;;;;;2.20;2.00;;;15.60;99.90;;;;;;5073817;28;20306;-78
2023/04/23 07:18:09;;;;;;;2.37;2.17;;;15.80;99.90;;;;;;5076014;28;20225;-78
2023/04/23 07:20:38;;;;;;;2.10;2.00;;;15.80;99.90;;;;;;5072990;28;20695;-79
2023/04/23 07:23:05;;;;;;;2.40;2.20;;;15.90;99.90;;;;;;5067397;28;20277;-79
2023/04/23 07:25:32;;;;;;;2.20;1.87;;;16.40;99.90;;;;;;5078952;28;20260;-79
2023/04/23 07:27:59;;;;;;;2.07;1.97;;;16.70;99.90;;;;;;5078942;28;20704;-78
2023/04/23 07:30:26;;;;;;;3.33;2.07;;;16.90;99.90;;;;;;5079348;28;20647;-78
2023/04/23 07:32:54;;;;;;;2.10;2.00;;;17.10;99.90;;;;;;5085563;28;20198;-79
2023/04/23 07:35:21;;;;;;;2.00;1.90;;;17.40;99.90;;;;;;5079281;28;20236;-79
2023/04/23 07:37:52;;;;;;;2.00;1.90;;;17.80;99.90;;;;;;5074742;28;20208;-78
2023/04/23 07:40:21;;;;;;;2.20;2.10;;;17.90;99.90;;;;;;5078253;28;20197;-78
2023/04/23 07:42:47;;;;;;;2.07;1.97;;;18.30;99.90;;;;;;5077607;28;20222;-79
2023/04/23 07:45:14;;;;;;;2.00;1.90;;;18.60;99.90;;;;;;5072846;28;20593;-78
2023/04/23 07:47:41;;;;;;;3.30;2.10;;;18.50;99.90;;;;;;5074225;28;20201;-79
2023/04/23 07:50:09;;;;;;;2.90;2.00;;;18.40;99.90;;;;;;5073943;28;20197;-79
2023/04/23 07:52:36;;;;;;;3.20;2.10;;;18.30;99.90;;;;;;5081227;28;20224;-79
2023/04/23 07:57:33;;;;;;;2.23;2.10;;;18.50;99.90;;;;;;5037749;28;20221;-80
2023/04/23 08:00:00;;;;;;;2.23;2.00;;;18.80;99.90;;;;;;5021761;28;20282;-79
2023/04/23 08:02:27;;;;;;;1.97;1.87;;;19.10;99.90;;;;;;5039366;28;20223;-79
2023/04/23 08:04:54;;;;;;;3.73;2.10;;;19.20;99.90;;;;;;5048668;28;20694;-78
2023/04/23 08:07:20;;;;;;;2.10;2.00;;;19.40;99.90;;;;;;5005303;28;20262;-79
2023/04/23 08:09:47;;;;;;;2.00;1.90;;;19.50;99.90;;;;;;5021532;28;20189;-78
2023/04/23 08:12:16;;;;;;;2.00;1.90;;;19.90;99.90;;;;;;5021486;28;20216;-78
2023/04/23 08:14:46;;;;;;;2.07;1.97;;;20.20;99.90;;;;;;5036517;28;20258;-79
2023/04/23 08:17:15;;;;;;;2.10;1.97;;;20.10;99.90;;;;;;5020608;28;20220;-80
2023/04/23 08:19:42;;;;;;;2.00;1.90;;;20.30;99.90;;;;;;5020677;28;20207;-80
2023/04/23 08:22:09;;;;;;;2.30;2.00;;;20.40;99.90;;;;;;5029831;28;20307;-80
2023/04/23 08:24:36;;;;;;;2.00;1.77;;;20.30;99.90;;;;;;5022476;28;20197;-79
2023/04/23 08:27:03;;;;;;;1.90;1.80;;;20.10;99.90;;;;;;5022115;28;20216;-79
2023/04/23 08:29:30;;;;;;;2.03;1.93;;;19.70;99.90;;;;;;5021018;28;20266;-79
2023/04/23 08:31:58;;;;;;;1.90;1.80;;;19.40;99.90;;;;;;5034598;28;20211;-78
2023/04/23 08:34:24;;;;;;;2.43;2.00;;;19.40;99.90;;;;;;5022757;28;20222;-78
2023/04/23 08:36:51;;;;;;;2.23;2.03;;;19.50;99.90;;;;;;5021362;28;20316;-79
2023/04/23 08:39:18;;;;;;;2.07;1.90;;;19.80;99.90;;;;;;5022166;28;20197;-78
2023/04/23 08:41:49;;;;;;;2.10;2.00;;;19.90;99.90;;;;;;5020486;28;20216;-78
2023/04/23 08:44:19;;;;;;;2.37;2.17;;;19.80;99.90;;;;;;5021463;28;20282;-79
2023/04/23 08:46:46;;;;;;;1.90;1.80;;;19.80;99.90;;;;;;5022881;28;20227;-79
2023/04/23 08:49:16;;;;;;;2.70;1.90;;;19.70;99.90;;;;;;5023257;28;20196;-80
2023/04/23 08:51:48;;;;;;;2.20;2.10;;;19.50;99.90;;;;;;5023447;28;20216;-80
2023/04/23 08:54:20;;;;;;;1.70;1.60;;;19.60;99.90;;;;;;5024358;28;20200;-79
2023/04/23 08:56:47;;;;;;;2.20;1.90;;;19.80;99.90;;;;;;5038686;28;20263;-79
2023/04/23 08:59:16;;;;;;;1.80;1.80;;;20.30;99.90;;;;;;5005754;28;20202;-79
2023/04/23 09:01:43;;;;;;;2.90;2.00;;;20.80;99.90;;;;;;5021831;28;20231;-78
2023/04/23 09:04:11;;;;;;;2.10;2.00;;;21.00;99.90;;;;;;5008689;28;20189;-79
2023/04/23 09:06:39;;;;;;;1.90;1.80;;;21.40;99.90;;;;;;5032135;28;20236;-80
2023/04/23 09:09:07;;;;;;;2.30;2.17;;;21.80;99.90;;;;;;5038237;28;20204;-81
2023/04/23 09:11:36;;;;;;;2.20;2.00;;;22.00;99.90;;;;;;5023275;28;20238;-83
2023/04/23 09:14:03;;;;;;;2.00;1.90;;;22.30;99.90;;;;;;5000177;28;20795;-81
2023/04/23 09:16:30;;;;;;;2.03;1.93;;;22.40;99.90;;;;;;5034123;28;20683;-83
2023/04/23 09:18:58;;;;;;;2.10;2.00;;;22.60;99.90;;;;;;5034873;28;20204;-81
2023/04/23 09:21:25;;;;;;;2.37;2.00;;;22.20;99.90;;;;;;5018886;28;20668;-81
2023/04/23 09:23:53;;;;;;;2.00;1.90;;;21.90;99.90;;;;;;5040166;28;20231;-82
2023/04/23 09:26:21;;;;;;;1.80;1.80;;;21.30;99.90;;;;;;5001436;28;20255;-84
2023/04/23 09:28:49;;;;;;;2.00;1.90;;;20.90;99.90;;;;;;5018582;28;20288;-86
2023/04/23 09:31:20;;;;;;;2.80;1.97;;;21.10;99.90;;;;;;5034357;28;20225;-82
2023/04/23 09:33:51;;;;;;;2.60;2.10;;;21.40;99.90;;;;;;5014612;28;20553;-83
2023/04/23 09:36:21;;;;;;;2.53;2.33;;;21.60;99.90;;;;;;5044271;28;20254;-81
2023/04/23 09:38:55;;;;;;;2.92;2.20;;;21.60;99.90;;;;;;5014256;28;20493;-82
2023/04/23 09:41:23;;;;;;;2.13;2.03;;;21.50;99.90;;;;;;5029038;28;20474;-81
2023/04/23 09:43:52;;;;;;;2.90;2.10;;;21.80;99.90;;;;;;5017873;28;20224;-82
2023/04/23 09:46:19;;;;;;;2.13;2.00;;;21.80;99.90;;;;;;5019937;28;20227;-83
2023/04/23 09:48:47;;;;;;;2.70;2.50;;;21.70;99.90;;;;;;5039215;28;20208;-80
2023/04/23 09:51:14;;;;;;;2.37;2.10;;;21.50;99.90;;;;;;5013733;28;20685;-83
2023/04/23 09:53:43;;;;;;;2.07;1.90;;;21.00;99.90;;;;;;5013261;28;20275;-82
2023/04/23 09:56:11;;;;;;;1.97;1.87;;;20.60;99.90;;;;;;5043167;28;20301;-83
2023/04/23 09:58:38;;;;;;;2.20;2.10;;;20.40;99.90;;;;;;5013571;28;20236;-83
2023/04/23 10:01:08;;;;;;;2.10;2.00;;;20.60;99.90;;;;;;5021735;28;20207;-82
2023/04/23 10:03:35;;;;;;;2.50;2.30;;;20.20;99.90;;;;;;5014829;28;20216;-79
2023/04/23 10:06:02;;;;;;;2.20;2.00;;;20.10;99.90;;;;;;5021104;28;20224;-82
2023/04/23 10:08:31;;;;;;;2.00;1.90;;;20.30;99.90;;;;;;5023628;28;20283;-83
2023/04/23 10:10:58;;;;;;;2.27;1.93;;;20.40;99.90;;;;;;5016723;28;20204;-79
2023/04/23 10:13:27;;;;;;;2.87;2.00;;;21.00;99.90;;;;;;5016771;28;20201;-83
2023/04/23 10:15:55;;;;;;;2.47;2.27;;;21.30;99.90;;;;;;5017368;28;20240;-83
2023/04/23 10:18:22;;;;;;;2.63;2.43;;;21.20;99.90;;;;;;5000153;28;20209;-83
2023/04/23 10:20:53;;;;;;;2.23;2.10;;;21.40;99.90;;;;;;4999822;28;20216;-84
2023/04/23 10:23:23;;;;;;;2.30;1.93;;;21.40;99.90;;;;;;5018575;28;20212;-82
2023/04/23 10:25:53;;;;;;;1.93;1.80;;;21.20;99.90;;;;;;5011520;28;20319;-77
2023/04/23 10:28:27;;;;;;;2.00;1.90;;;20.90;99.90;;;;;;5017526;28;20596;-76
2023/04/23 10:30:58;;;;;;;2.00;1.90;;;20.80;99.90;;;;;;5015627;28;20198;-78
2023/04/23 10:33:26;;;;;;;4.80;2.10;;;20.70;99.90;;;;;;5014500;28;20653;-79
2023/04/23 10:35:56;;;;;;;1.90;1.80;;;20.80;99.90;;;;;;5024502;28;20222;-78
2023/04/23 10:38:27;;;;;;;2.13;1.93;;;20.90;99.90;;;;;;5015276;28;20735;-78
2023/04/23 10:40:56;;;;;;;2.33;2.17;;;20.80;99.90;;;;;;5008463;28;20211;-78
2023/04/23 10:43:24;;;;;;;2.20;2.10;;;20.80;99.90;;;;;;5008693;28;20328;-78
2023/04/23 10:45:52;;;;;;;2.30;2.10;;;20.80;99.90;;;;;;5026460;28;20212;-77
2023/04/23 10:48:21;;;;;;;2.10;2.00;;;21.10;99.90;;;;;;5017838;28;20604;-77
2023/04/23 10:50:57;;;;;;;2.20;2.00;;;21.30;99.90;;;;;;5018597;28;20204;-79
2023/04/23 10:53:25;;;;;;;2.70;2.10;;;21.70;99.90;;;;;;5016361;28;20188;-76
2023/04/23 10:56:05;;;;;;;2.10;2.00;;;21.90;99.90;;;;;;5007144;28;20521;-78
2023/04/23 10:58:48;;;;;;;2.60;2.40;;;21.90;99.90;;;;;;5016973;28;20745;-79
2023/04/23 11:01:14;;;;;;;2.20;2.10;;;21.70;99.90;;;;;;5019198;28;20423;-80
2023/04/23 11:03:43;;;;;;;2.20;2.00;;;21.50;99.90;;;;;;5017199;28;20716;-75
2023/04/23 11:06:14;;;;;;;3.10;2.27;;;21.40;99.90;;;;;;5016348;28;20216;-75
2023/04/23 11:08:52;;;;;;;2.13;2.03;;;21.40;99.90;;;;;;5016477;28;20222;-76
2023/04/23 11:11:24;;;;;;;2.83;2.10;;;21.20;99.90;;;;;;5001914;28;20223;-75
2023/04/23 11:13:53;;;;;;;2.07;1.97;;;21.40;99.90;;;;;;5016825;28;20196;-75
2023/04/23 11:16:22;;;;;;;2.38;2.17;;;21.50;99.90;;;;;;5010522;28;20447;-76
2023/04/23 11:18:58;;;;;;;2.20;2.10;;;21.60;99.90;;;;;;5008642;28;20510;-85
2023/04/23 11:22:01;;;;;;;2.00;1.90;;;21.80;99.90;;;;;;5041447;28;20204;-82
2023/04/23 11:24:29;;;;;;;2.17;2.07;;;21.90;99.90;;;;;;5027510;28;20327;-83
2023/04/23 11:26:57;;;;;;;2.00;1.90;;;21.70;99.90;;;;;;5010600;28;20209;-85
2023/04/23 11:29:25;;;;;;;2.40;2.20;;;21.80;99.90;;;;;;5012506;28;20211;-85
2023/04/23 11:31:52;;;;;;;2.07;1.97;;;21.90;99.90;;;;;;5022862;28;20200;-81
2023/04/23 11:34:22;;;;;;;2.50;2.30;;;21.80;99.90;;;;;;5021220;28;20192;-81
2023/04/23 11:36:51;;;;;;;2.70;2.50;;;21.80;99.90;;;;;;5019128;28;20606;-78
2023/04/23 11:39:19;;;;;;;2.40;2.20;;;21.90;99.90;;;;;;5047943;28;20212;-80
2023/04/23 11:41:46;;;;;;;2.33;2.23;;;21.80;99.90;;;;;;5030415;28;20238;-82
2023/04/23 11:44:13;;;;;;;2.20;2.10;;;21.80;99.90;;;;;;5006182;28;20213;-80
2023/04/23 11:46:40;;;;;;;2.10;2.00;;;21.80;99.90;;;;;;5028133;28;20259;-78
2023/04/23 11:49:09;;;;;;;2.20;2.10;;;22.10;99.90;;;;;;5004746;28;20228;-76
2023/04/23 11:51:42;;;;;;;2.30;2.20;;;22.20;99.90;;;;;;5000350;28;20197;-76
2023/04/23 11:54:09;;;;;;;2.50;2.40;;;22.30;99.90;;;;;;5023918;28;20203;-77
2023/04/23 11:56:36;;;;;;;2.20;2.10;;;22.20;99.90;;;;;;5009829;28;20223;-77
2023/04/23 11:59:04;;;;;;;3.73;2.70;;;22.20;99.90;;;;;;5023888;28;20216;-77
2023/04/23 12:01:44;;;;;;;2.70;2.50;;;22.30;99.90;;;;;;5028535;28;20209;-76
2023/04/23 12:04:16;;;;;;;2.20;2.10;;;22.50;99.90;;;;;;5003636;28;20308;-76
2023/04/23 12:06:46;;;;;;;2.40;2.30;;;22.40;99.90;;;;;;5015850;28;20231;-84
2023/04/23 12:09:15;;;;;;;2.03;1.93;;;22.40;99.90;;;;;;5013164;28;20216;-81
2023/04/23 12:11:43;;;;;;;2.10;1.93;;;22.40;99.90;;;;;;5026178;28;20204;-80
2023/04/23 12:14:11;;;;;;;2.00;1.90;;;22.40;99.90;;;;;;5022660;28;20193;-81
2023/04/23 12:16:40;;;;;;;1.87;1.77;;;22.70;99.90;;;;;;5055705;28;20239;-81
2023/04/23 12:19:12;;;;;;;2.03;1.93;;;22.60;99.90;;;;;;5024580;28;20201;-83
2023/04/23 12:21:53;;;;;;;2.57;2.47;;;22.30;99.90;;;;;;5028252;28;20206;-83
2023/04/23 12:24:21;;;;;;;2.50;2.30;;;22.40;99.90;;;;;;5017755;28;20212;-80
2023/04/23 12:26:53;;;;;;;1.90;1.80;;;22.50;99.90;;;;;;5023740;28;20316;-82
2023/04/23 12:29:22;;;;;;;2.13;2.03;;;22.50;99.90;;;;;;5020137;28;20223;-82
2023/04/23 12:31:50;;;;;;;2.00;1.90;;;22.40;99.90;;;;;;5011250;28;20224;-81
2023/04/23 12:34:16;;;;;;;4.27;2.50;;;22.30;99.90;;;;;;5010933;28;20634;-82
2023/04/23 12:36:50;;;;;;;2.87;2.67;;;22.00;99.90;;;;;;5040197;28;20219;-82
2023/04/23 12:39:26;;;;;;;1.93;1.90;;;21.70;99.90;;;;;;5040982;28;20224;-82
2023/04/23 12:41:56;;;;;;;2.60;2.40;;;21.40;99.90;;;;;;5013659;28;20275;-84
2023/04/23 12:44:23;;;;;;;2.00;1.90;;;21.10;99.90;;;;;;5018107;28;20231;-83
2023/04/23 12:46:55;;;;;;;2.10;2.00;;;20.90;99.90;;;;;;5017016;28;20223;-80
2023/04/23 12:49:22;;;;;;;1.90;1.80;;;20.80;99.90;;;;;;5013511;28;20235;-84
2023/04/23 12:51:51;;;;;;;2.20;2.00;;;20.80;99.90;;;;;;5008536;28;20346;-80
2023/04/23 12:54:18;;;;;;;2.37;2.00;;;20.90;99.90;;;;;;5014415;28;20201;-82
2023/04/23 12:56:45;;;;;;;1.90;1.80;;;21.00;99.90;;;;;;5002975;28;20224;-79
2023/04/23 12:59:11;;;;;;;2.30;2.10;;;21.20;99.90;;;;;;5010660;28;20205;-81